createdAt,value
2022-07-25T00:01:08.607Z,8.50
2022-07-25T00:03:39.986Z,7.68
2022-07-25T00:06:13.397Z,10.57
2022-07-25T00:08:45.741Z,9.13
2022-07-25T00:11:13.825Z,7.65
2022-07-25T00:13:41.934Z,8.05
2022-07-25T00:16:10.174Z,10.00
2022-07-25T00:18:39.681Z,6.90
2022-07-25T00:21:07.843Z,7.82
2022-07-25T00:23:35.904Z,7.90
2022-07-25T00:26:04.024Z,8.43
2022-07-25T00:28:32.065Z,7.65
2022-07-25T00:31:00.260Z,8.70
2022-07-25T00:33:28.537Z,10.40
2022-07-25T00:35:58.020Z,10.73
2022-07-25T00:38:26.169Z,10.10
2022-07-25T00:40:55.508Z,10.23
2022-07-25T00:43:24.152Z,8.88
2022-07-25T00:45:52.252Z,9.93
2022-07-25T00:48:21.183Z,8.15
2022-07-25T00:50:49.407Z,11.20
2022-07-25T00:53:19.374Z,8.15
2022-07-25T00:55:47.948Z,8.18
2022-07-25T00:58:16.453Z,9.02
2022-07-25T01:00:44.578Z,10.00
2022-07-25T01:03:12.846Z,9.57
2022-07-25T01:05:41.082Z,12.00
2022-07-25T01:08:10.065Z,8.07
2022-07-25T01:10:39.758Z,9.98
2022-07-25T01:13:08.021Z,8.57
2022-07-25T01:15:36.251Z,10.70
2022-07-25T01:18:07.781Z,8.77
2022-07-25T01:20:37.217Z,8.63
2022-07-25T01:23:05.380Z,10.13
2022-07-25T01:25:33.913Z,8.38
2022-07-25T01:28:02.002Z,9.68
2022-07-25T01:30:30.107Z,10.60
2022-07-25T01:32:58.189Z,8.00
2022-07-25T01:35:26.287Z,9.25
2022-07-25T01:37:55.621Z,8.85
2022-07-25T01:40:23.783Z,9.30
2022-07-25T01:42:51.842Z,9.25
2022-07-25T01:45:20.003Z,8.77
2022-07-25T01:47:48.098Z,8.82
2022-07-25T01:50:16.183Z,10.02
2022-07-25T01:52:44.386Z,10.50
2022-07-25T01:55:14.280Z,10.38
2022-07-25T01:57:49.743Z,10.00
2022-07-25T02:00:18.746Z,9.10
2022-07-25T02:02:47.212Z,10.38
2022-07-25T02:05:16.744Z,10.60
2022-07-25T02:07:44.858Z,10.23
2022-07-25T02:10:14.279Z,10.73
2022-07-25T02:12:42.388Z,11.80
2022-07-25T02:15:11.204Z,11.82
2022-07-25T02:17:39.312Z,11.45
2022-07-25T02:20:08.427Z,11.73
2022-07-25T02:22:36.489Z,11.80
2022-07-25T02:25:05.027Z,11.52
2022-07-25T02:27:34.404Z,11.77
2022-07-25T02:30:02.520Z,11.65
2022-07-25T02:32:31.703Z,12.13
2022-07-25T02:34:59.761Z,11.88
2022-07-25T02:37:27.845Z,11.18
2022-07-25T02:39:55.868Z,11.13
2022-07-25T02:42:24.033Z,12.65
2022-07-25T02:44:54.023Z,12.35
2022-07-25T02:47:22.081Z,11.88
2022-07-25T02:49:50.117Z,9.50
2022-07-25T02:52:18.333Z,14.05
2022-07-25T02:54:46.804Z,11.98
2022-07-25T02:57:14.817Z,10.70
2022-07-25T02:59:42.921Z,10.38
2022-07-25T03:02:12.391Z,10.65
2022-07-25T03:04:40.470Z,10.32
2022-07-25T03:07:08.540Z,11.27
2022-07-25T03:09:36.525Z,10.65
2022-07-25T03:12:05.077Z,11.30
2022-07-25T03:14:33.084Z,12.15
2022-07-25T03:17:01.518Z,12.00
2022-07-25T03:19:31.259Z,12.07
2022-07-25T03:21:59.310Z,12.00
2022-07-25T03:24:27.370Z,12.00
2022-07-25T03:26:56.059Z,13.52
2022-07-25T03:29:24.105Z,12.27
2022-07-25T03:31:52.182Z,12.68
2022-07-25T03:34:20.288Z,13.07
2022-07-25T03:36:49.627Z,13.00
2022-07-25T03:39:18.222Z,12.80
2022-07-25T03:41:46.403Z,12.60
2022-07-25T03:44:14.798Z,11.20
2022-07-25T03:46:42.988Z,10.18
2022-07-25T03:49:11.080Z,14.50
2022-07-25T03:51:39.208Z,13.40
2022-07-25T03:54:13.393Z,13.82
2022-07-25T03:56:43.444Z,11.05
2022-07-25T03:59:14.095Z,12.90
2022-07-25T04:01:43.750Z,10.70
2022-07-25T04:04:12.402Z,13.63
2022-07-25T04:06:41.509Z,13.20
2022-07-25T04:09:11.618Z,12.18
2022-07-25T04:11:40.056Z,11.13
2022-07-25T04:14:08.470Z,11.52
2022-07-25T04:16:37.045Z,10.52
2022-07-25T04:19:07.781Z,9.98
2022-07-25T04:21:36.769Z,10.93
2022-07-25T04:24:05.309Z,10.20
2022-07-25T04:26:34.856Z,11.15
2022-07-25T04:29:03.935Z,11.77
2022-07-25T04:31:32.193Z,11.00
2022-07-25T04:34:01.030Z,10.57
2022-07-25T04:36:29.801Z,11.18
2022-07-25T04:38:57.823Z,10.57
2022-07-25T04:41:25.860Z,13.23
2022-07-25T04:43:55.454Z,10.60
2022-07-25T04:46:24.071Z,12.50
2022-07-25T04:48:52.544Z,11.38
2022-07-25T04:51:20.669Z,9.90
2022-07-25T04:53:48.756Z,14.13
2022-07-25T04:56:16.898Z,10.43
2022-07-25T04:58:45.125Z,10.90
2022-07-25T05:01:14.588Z,10.75
2022-07-25T05:03:50.132Z,10.82
2022-07-25T05:06:19.419Z,10.57
2022-07-25T05:08:47.600Z,10.07
2022-07-25T05:11:15.651Z,10.20
2022-07-25T05:13:43.699Z,10.50
2022-07-25T05:16:11.916Z,11.18
2022-07-25T05:18:41.480Z,10.75
2022-07-25T05:21:12.104Z,10.60
2022-07-25T05:23:40.466Z,12.20
2022-07-25T05:26:08.727Z,11.27
2022-07-25T05:28:36.771Z,10.70
2022-07-25T05:31:05.395Z,10.60
2022-07-25T05:33:34.639Z,10.15
2022-07-25T05:36:05.121Z,8.68
2022-07-25T05:38:33.545Z,9.85
2022-07-25T05:41:02.005Z,9.45
2022-07-25T05:43:30.109Z,9.38
2022-07-25T05:46:01.957Z,9.20
2022-07-25T05:48:30.221Z,9.63
2022-07-25T05:50:59.352Z,8.73
2022-07-25T05:53:28.802Z,8.98
2022-07-25T05:55:56.892Z,9.13
2022-07-25T05:58:29.414Z,8.60
2022-07-25T06:00:58.379Z,8.15
2022-07-25T06:03:26.744Z,8.43
2022-07-25T06:05:56.158Z,8.38
2022-07-25T06:08:24.316Z,7.93
2022-07-25T06:10:54.488Z,8.38
2022-07-25T06:13:23.587Z,7.82
2022-07-25T06:15:51.878Z,8.35
2022-07-25T06:18:20.145Z,7.47
2022-07-25T06:20:48.832Z,7.25
2022-07-25T06:23:17.132Z,7.57
2022-07-25T06:25:50.041Z,7.13
2022-07-25T06:28:20.021Z,8.10
2022-07-25T06:30:48.385Z,6.82
2022-07-25T06:33:16.428Z,7.35
2022-07-25T06:35:44.480Z,8.05
2022-07-25T06:38:12.539Z,7.22
2022-07-25T06:40:40.605Z,7.40
2022-07-25T06:43:08.678Z,7.00
2022-07-25T06:45:38.158Z,6.68
2022-07-25T06:48:06.894Z,7.43
2022-07-25T06:50:34.964Z,7.32
2022-07-25T06:53:03.076Z,6.45
2022-07-25T06:55:31.101Z,7.38
2022-07-25T06:57:59.183Z,7.10
2022-07-25T07:00:27.686Z,7.10
2022-07-25T07:02:59.637Z,7.78
2022-07-25T07:05:29.439Z,6.55
2022-07-25T07:07:57.709Z,7.53
2022-07-25T07:10:26.699Z,7.38
2022-07-25T07:13:05.587Z,6.60
2022-07-25T07:15:36.229Z,7.15
2022-07-25T07:18:06.750Z,6.55
2022-07-25T07:20:34.863Z,7.03
2022-07-25T07:23:03.769Z,7.00
2022-07-25T07:25:32.026Z,6.28
2022-07-25T07:28:00.513Z,6.65
2022-07-25T07:30:52.122Z,7.40
2022-07-25T07:33:18.006Z,7.20
2022-07-25T07:35:46.050Z,6.93
2022-07-25T07:38:14.807Z,6.70
2022-07-25T07:40:42.865Z,6.72
2022-07-25T07:43:11.082Z,6.45
2022-07-25T07:45:39.168Z,7.00
2022-07-25T07:48:07.881Z,7.30
2022-07-25T07:50:37.419Z,6.47
2022-07-25T07:53:06.677Z,6.35
2022-07-25T07:55:46.814Z,7.22
2022-07-25T07:58:16.751Z,7.30
2022-07-25T08:00:45.713Z,7.05
2022-07-25T08:03:13.863Z,6.65
2022-07-25T08:05:45.348Z,6.32
2022-07-25T08:08:15.015Z,6.70
2022-07-25T08:10:45.684Z,6.85
2022-07-25T08:13:15.232Z,6.35
2022-07-25T08:15:44.520Z,6.65
2022-07-25T08:18:17.449Z,6.78
2022-07-25T08:20:48.504Z,6.38
2022-07-25T08:23:16.962Z,7.07
2022-07-25T08:25:45.746Z,6.18
2022-07-25T08:28:14.603Z,7.82
2022-07-25T08:30:43.937Z,5.93
2022-07-25T08:33:13.835Z,7.85
2022-07-25T08:35:46.489Z,5.93
2022-07-25T08:38:16.407Z,6.50
2022-07-25T08:40:44.557Z,6.63
2022-07-25T08:43:14.026Z,6.03
2022-07-25T08:45:46.375Z,6.75
2022-07-25T08:48:14.996Z,6.50
2022-07-25T08:50:43.371Z,6.63
2022-07-25T08:53:32.213Z,6.10
2022-07-25T08:56:02.492Z,6.45
2022-07-25T08:58:32.353Z,6.65
2022-07-25T09:01:00.346Z,6.70
2022-07-25T09:03:40.213Z,6.13
2022-07-25T09:06:19.179Z,6.38
2022-07-25T09:08:55.046Z,6.55
2022-07-25T09:11:32.196Z,7.00
2022-07-25T09:14:05.848Z,7.50
2022-07-25T09:16:36.790Z,6.55
2022-07-25T09:19:10.567Z,6.32
2022-07-25T09:21:39.782Z,6.88
2022-07-25T09:24:13.305Z,11.23
2022-07-25T09:26:48.321Z,6.50
2022-07-25T09:29:21.469Z,6.30
2022-07-25T09:31:49.924Z,7.47
2022-07-25T09:34:22.907Z,6.45
2022-07-25T09:36:54.515Z,6.60
2022-07-25T09:39:22.646Z,7.53
2022-07-25T09:41:52.071Z,6.30
2022-07-25T09:44:22.955Z,6.63
2022-07-25T09:46:51.525Z,6.78
2022-07-25T09:49:19.622Z,8.90
2022-07-25T09:51:48.494Z,7.63
2022-07-25T09:54:17.194Z,6.90
2022-07-25T09:56:45.229Z,6.18
2022-07-25T09:59:14.639Z,7.18
2022-07-25T10:01:53.199Z,6.95
2022-07-25T10:04:23.929Z,6.28
2022-07-25T10:07:04.462Z,6.43
2022-07-25T10:09:33.457Z,8.27
2022-07-25T10:12:06.238Z,6.63
2022-07-25T10:14:36.529Z,6.95
2022-07-25T10:17:05.441Z,6.40
2022-07-25T10:19:45.905Z,6.85
2022-07-25T10:22:20.338Z,7.07
2022-07-25T10:25:11.483Z,6.47
2022-07-25T10:27:44.971Z,6.80
2022-07-25T10:30:23.501Z,6.88
2022-07-25T10:32:52.543Z,6.43
2022-07-25T10:35:20.710Z,6.57
2022-07-25T10:37:52.140Z,6.90
2022-07-25T10:40:28.413Z,7.90
2022-07-25T10:43:03.899Z,6.70
2022-07-25T10:45:40.088Z,6.90
2022-07-25T10:48:09.667Z,7.90
2022-07-25T10:50:56.525Z,6.40
2022-07-25T10:53:38.226Z,6.90
2022-07-25T10:56:11.621Z,6.00
2022-07-25T10:58:47.982Z,6.10
2022-07-25T11:01:22.230Z,6.85
2022-07-25T11:03:50.613Z,6.10
2022-07-25T11:06:30.597Z,7.38
2022-07-25T11:09:01.019Z,14.73
2022-07-25T11:11:40.458Z,6.18
2022-07-25T11:14:16.857Z,7.97
2022-07-25T11:16:47.650Z,7.43
2022-07-25T11:19:21.260Z,6.35
2022-07-25T11:21:51.192Z,5.82
2022-07-25T11:24:19.899Z,6.57
2022-07-25T11:26:49.519Z,7.55
2022-07-25T11:29:23.780Z,8.27
2022-07-25T11:32:01.795Z,8.98
2022-07-25T11:34:32.406Z,6.90
2022-07-25T11:37:03.925Z,7.32
2022-07-25T11:39:34.107Z,7.60
2022-07-25T11:42:04.115Z,6.90
2022-07-25T11:44:37.439Z,7.20
2022-07-25T11:47:09.199Z,8.18
2022-07-25T11:49:47.541Z,6.88
2022-07-25T11:52:23.185Z,7.32
2022-07-25T11:54:53.325Z,7.80
2022-07-25T11:57:22.697Z,7.75
2022-07-25T11:59:50.799Z,9.13
2022-07-25T12:02:28.709Z,7.30
2022-07-25T12:04:58.467Z,7.50
2022-07-25T12:07:51.488Z,7.57
2022-07-25T12:10:25.080Z,7.30
2022-07-25T12:12:55.729Z,7.72
2022-07-25T12:15:25.357Z,8.05
2022-07-25T12:17:56.621Z,7.93
2022-07-25T12:20:27.124Z,8.57
2022-07-25T12:22:57.074Z,8.80
2022-07-25T12:25:30.707Z,8.18
2022-07-25T12:28:00.027Z,7.53
2022-07-25T12:30:29.221Z,7.18
2022-07-25T12:32:59.694Z,7.40
2022-07-25T12:35:28.088Z,7.35
2022-07-25T12:40:49.529Z,8.65
2022-07-25T12:43:17.655Z,7.70
2022-07-25T12:45:45.909Z,8.02
2022-07-25T12:48:16.369Z,8.15
2022-07-25T12:50:44.768Z,7.90
2022-07-25T12:53:14.112Z,7.22
2022-07-25T12:55:42.768Z,6.85
2022-07-25T12:58:11.518Z,8.02
2022-07-25T13:00:39.704Z,7.38
2022-07-25T13:03:07.780Z,7.25
2022-07-25T13:05:37.180Z,6.90
2022-07-25T13:08:06.109Z,7.70
2022-07-25T13:10:34.195Z,8.98
2022-07-25T13:13:02.281Z,7.93
2022-07-25T13:15:30.377Z,7.70
2022-07-25T13:17:58.595Z,8.50
2022-07-25T13:20:26.873Z,7.30
2022-07-25T13:22:56.342Z,7.53
2022-07-25T13:25:24.418Z,8.48
2022-07-25T13:27:52.508Z,7.55
2022-07-25T13:30:20.594Z,7.75
2022-07-25T13:32:50.218Z,8.15
2022-07-25T13:35:20.638Z,7.40
2022-07-25T13:37:49.574Z,7.00
2022-07-25T13:40:18.956Z,9.55
2022-07-25T13:42:47.043Z,8.57
2022-07-25T13:45:15.210Z,8.15
2022-07-25T13:47:43.462Z,8.07
2022-07-25T13:50:11.764Z,7.68
2022-07-25T13:52:39.823Z,7.93
2022-07-25T13:55:10.283Z,8.52
2022-07-25T13:57:39.795Z,8.70
2022-07-25T14:00:09.220Z,7.60
2022-07-25T14:02:37.421Z,8.20
2022-07-25T14:05:06.220Z,8.10
2022-07-25T14:07:35.611Z,8.00
2022-07-25T14:10:03.957Z,7.65
2022-07-25T14:12:32.148Z,8.75
2022-07-25T14:15:01.722Z,9.13
2022-07-25T14:17:30.662Z,8.55
2022-07-25T14:19:58.923Z,9.25
2022-07-25T14:22:27.069Z,8.75
2022-07-25T14:24:55.117Z,8.77
2022-07-25T14:27:23.338Z,8.82
2022-07-25T14:29:51.505Z,8.77
2022-07-25T14:32:21.001Z,7.57
2022-07-25T14:34:49.052Z,9.27
2022-07-25T14:37:17.141Z,9.10
2022-07-25T14:39:45.632Z,9.23
2022-07-25T14:42:13.750Z,7.45
2022-07-25T14:44:43.347Z,7.57
2022-07-25T14:47:12.759Z,6.72
2022-07-25T14:49:43.547Z,6.55
2022-07-25T14:52:13.042Z,10.35
2022-07-25T14:54:41.537Z,6.90
2022-07-25T14:57:09.986Z,6.43
2022-07-25T14:59:38.413Z,6.85
2022-07-25T15:02:06.599Z,7.45
2022-07-25T15:04:34.772Z,6.80
2022-07-25T15:07:04.360Z,6.25
2022-07-25T15:09:32.428Z,7.60
2022-07-25T15:12:00.538Z,6.88
2022-07-25T15:14:29.344Z,9.85
2022-07-25T15:16:57.468Z,9.68
2022-07-25T15:19:26.366Z,14.95
2022-07-25T15:21:54.781Z,10.82
2022-07-25T15:24:28.931Z,10.50
2022-07-25T15:26:57.974Z,7.38
2022-07-25T15:29:27.812Z,5.13
2022-07-25T15:31:56.049Z,7.57
2022-07-25T15:34:24.175Z,10.95
2022-07-25T15:36:52.324Z,4.75
2022-07-25T15:39:20.500Z,7.50
2022-07-25T15:41:49.884Z,5.55
2022-07-25T15:44:17.977Z,8.73
2022-07-25T15:46:46.864Z,7.05
2022-07-25T15:49:16.496Z,4.93
2022-07-25T15:51:44.594Z,7.25
2022-07-25T15:54:12.601Z,5.22
2022-07-25T15:56:41.232Z,3.95
2022-07-25T15:59:10.796Z,7.03
2022-07-25T16:01:38.931Z,5.10
2022-07-25T16:04:07.180Z,3.78
2022-07-25T16:06:35.349Z,6.03
2022-07-25T16:09:03.591Z,4.95
2022-07-25T16:11:31.930Z,4.30
2022-07-25T16:14:00.045Z,6.32
2022-07-25T16:16:29.651Z,3.70
2022-07-25T16:18:58.561Z,5.03
2022-07-25T16:21:26.622Z,3.70
2022-07-25T16:23:54.663Z,6.05
2022-07-25T16:26:22.855Z,3.72
2022-07-25T16:28:53.998Z,3.88
2022-07-25T16:31:26.492Z,5.53
2022-07-25T16:33:55.997Z,6.55
2022-07-25T16:36:25.342Z,5.35
2022-07-25T16:38:53.393Z,5.93
2022-07-25T16:41:21.461Z,7.07
2022-07-25T16:43:49.625Z,2.90
2022-07-25T16:46:17.722Z,5.05
2022-07-25T16:48:45.891Z,4.55
2022-07-25T16:51:16.141Z,4.80
2022-07-25T16:53:44.199Z,3.60
2022-07-25T16:56:12.258Z,7.20
2022-07-25T16:58:40.335Z,6.25
2022-07-25T17:01:08.407Z,4.35
2022-07-25T17:03:36.411Z,4.35
2022-07-25T17:06:04.802Z,3.25
2022-07-25T17:08:34.584Z,4.35
2022-07-25T17:11:03.365Z,6.57
2022-07-25T17:13:31.501Z,3.78
2022-07-25T17:15:59.638Z,7.50
2022-07-25T17:18:27.906Z,8.00
2022-07-25T17:20:55.972Z,6.32
2022-07-25T17:23:24.256Z,8.75
2022-07-25T17:25:54.488Z,7.72
2022-07-25T17:28:23.225Z,3.92
2022-07-25T17:30:51.451Z,5.82
2022-07-25T17:33:19.896Z,5.72
2022-07-25T17:35:48.024Z,4.03
2022-07-25T17:38:16.133Z,4.03
2022-07-25T17:40:44.369Z,4.55
2022-07-25T17:43:13.738Z,4.10
2022-07-25T17:45:42.224Z,7.05
2022-07-25T17:48:10.266Z,5.15
2022-07-25T17:50:38.353Z,5.93
2022-07-25T17:53:06.509Z,5.40
2022-07-25T17:55:38.752Z,4.03
2022-07-25T17:58:07.425Z,2.50
2022-07-25T18:00:36.825Z,4.00
2022-07-25T18:03:05.232Z,4.18
2022-07-25T18:05:33.385Z,5.43
2022-07-25T18:08:02.674Z,6.13
2022-07-25T18:10:30.978Z,3.50
2022-07-25T18:13:00.244Z,3.58
2022-07-25T18:15:28.640Z,6.43
2022-07-25T18:17:58.189Z,3.65
2022-07-25T18:20:27.965Z,6.45
2022-07-25T18:22:58.494Z,2.90
2022-07-25T18:25:26.684Z,3.08
2022-07-25T18:27:54.749Z,5.20
2022-07-25T18:30:27.225Z,3.67
2022-07-25T18:32:58.582Z,5.95
2022-07-25T18:35:26.693Z,3.13
2022-07-25T18:37:54.974Z,4.18
2022-07-25T18:40:23.171Z,3.33
2022-07-25T18:42:51.261Z,3.90
2022-07-25T18:45:19.303Z,5.22
2022-07-25T18:47:48.725Z,4.05
2022-07-25T18:50:20.142Z,4.28
2022-07-25T18:52:48.363Z,3.90
2022-07-25T18:55:16.419Z,4.85
2022-07-25T18:57:44.654Z,2.30
2022-07-25T19:00:13.015Z,7.50
2022-07-25T19:02:41.116Z,6.00
2022-07-25T19:05:10.041Z,3.75
2022-07-25T19:07:40.496Z,4.15
2022-07-25T19:10:09.729Z,5.95
2022-07-25T19:12:38.141Z,4.43
2022-07-25T19:15:07.538Z,4.30
2022-07-25T19:17:37.034Z,8.15
2022-07-25T19:20:06.010Z,5.00
2022-07-25T19:22:34.194Z,3.97
2022-07-25T19:25:07.509Z,3.78
2022-07-25T19:27:35.690Z,5.57
2022-07-25T19:30:06.883Z,8.30
2022-07-25T19:32:35.391Z,6.97
2022-07-25T19:35:03.863Z,5.88
2022-07-25T19:37:32.024Z,6.57
2022-07-25T19:40:00.048Z,6.65
2022-07-25T19:42:29.933Z,4.85
2022-07-25T19:44:58.113Z,5.65
2022-07-25T19:47:26.614Z,6.05
2022-07-25T19:49:54.640Z,5.40
2022-07-25T19:52:22.663Z,4.95
2022-07-25T19:54:50.688Z,3.95
2022-07-25T19:57:18.701Z,7.40
2022-07-25T19:59:48.080Z,5.53
2022-07-25T20:02:16.131Z,5.18
2022-07-25T20:04:44.366Z,4.97
2022-07-25T20:07:12.350Z,5.85
2022-07-25T20:09:40.605Z,6.20
2022-07-25T20:12:09.327Z,5.47
2022-07-25T20:14:37.397Z,2.85
2022-07-25T20:17:08.019Z,3.55
2022-07-25T20:19:36.752Z,5.53
2022-07-25T20:22:05.658Z,4.10
2022-07-25T20:24:33.685Z,6.50
2022-07-25T20:27:02.020Z,6.82
2022-07-25T20:29:30.165Z,5.28
2022-07-25T20:31:58.598Z,7.55
2022-07-25T20:34:28.062Z,3.33
2022-07-25T20:36:56.341Z,2.97
2022-07-25T20:39:26.231Z,2.22
2022-07-25T20:41:56.827Z,3.58
2022-07-25T20:44:24.922Z,6.93
2022-07-25T20:46:53.041Z,5.30
2022-07-25T20:49:21.335Z,5.38
2022-07-25T20:51:54.362Z,4.57
2022-07-25T20:54:22.858Z,4.43
2022-07-25T20:56:51.263Z,4.50
2022-07-25T20:59:19.467Z,4.22
2022-07-25T21:01:48.052Z,5.15
2022-07-25T21:04:16.830Z,6.78
2022-07-25T21:06:45.931Z,5.55
2022-07-25T21:09:15.634Z,6.00
2022-07-25T21:11:43.718Z,4.50
2022-07-25T21:14:11.716Z,3.08
2022-07-25T21:16:39.803Z,4.25
2022-07-25T21:19:08.285Z,7.05
2022-07-25T21:21:37.108Z,4.97
2022-07-25T21:24:06.412Z,9.15
2022-07-25T21:26:36.967Z,3.08
2022-07-25T21:29:05.314Z,4.45
2022-07-25T21:31:33.815Z,5.32
2022-07-25T21:34:02.183Z,7.82
2022-07-25T21:36:30.872Z,7.07
2022-07-25T21:38:58.941Z,3.97
2022-07-25T21:41:27.214Z,8.98
2022-07-25T21:43:56.821Z,10.05
2022-07-25T21:46:24.886Z,5.85
2022-07-25T21:49:10.787Z,4.90
2022-07-25T21:51:40.924Z,7.00
2022-07-25T21:54:09.484Z,3.50
2022-07-25T21:56:37.598Z,4.38
2022-07-25T21:59:07.375Z,4.88
2022-07-25T22:01:35.851Z,3.45
2022-07-25T22:04:05.040Z,5.75
2022-07-25T22:06:33.209Z,4.07
2022-07-25T22:09:01.561Z,4.75
2022-07-25T22:11:42.988Z,5.25
2022-07-25T22:14:17.013Z,7.15
2022-07-25T22:16:45.171Z,5.40
2022-07-25T22:19:13.602Z,6.60
2022-07-25T22:21:41.707Z,3.78
2022-07-25T22:24:10.704Z,5.10
2022-07-25T22:26:38.886Z,3.80
2022-07-25T22:29:07.340Z,5.95
2022-07-25T22:31:38.767Z,4.38
2022-07-25T22:34:07.924Z,4.15
2022-07-25T22:36:36.047Z,6.53
2022-07-25T22:39:04.600Z,3.65
2022-07-25T22:41:33.044Z,4.63
2022-07-25T22:44:01.122Z,5.97
2022-07-25T22:46:30.235Z,4.03
2022-07-25T22:49:00.253Z,4.97
2022-07-25T22:51:29.895Z,5.47
2022-07-25T22:53:58.549Z,6.68
2022-07-25T22:56:27.314Z,7.38
2022-07-25T22:58:55.886Z,4.43
2022-07-25T23:01:24.431Z,5.20
2022-07-25T23:03:52.838Z,2.92
2022-07-25T23:06:22.717Z,6.43
2022-07-25T23:08:51.021Z,3.70
2022-07-25T23:11:19.268Z,4.38
2022-07-25T23:13:47.325Z,3.60
2022-07-25T23:16:15.375Z,4.45
2022-07-25T23:18:43.475Z,2.67
2022-07-25T23:21:11.818Z,5.93
2022-07-25T23:23:41.160Z,2.63
2022-07-25T23:26:09.213Z,3.33
2022-07-25T23:28:37.250Z,6.20
2022-07-25T23:31:05.442Z,6.72
2022-07-25T23:33:33.554Z,3.85
2022-07-25T23:36:03.045Z,3.22
2022-07-25T23:38:31.094Z,4.45
2022-07-25T23:41:00.495Z,14.30
2022-07-25T23:43:57.523Z,4.22
2022-07-25T23:46:16.642Z,4.60
2022-07-25T23:48:46.506Z,3.80
2022-07-25T23:51:16.594Z,4.72
2022-07-25T23:53:44.706Z,4.95
2022-07-25T23:56:18.764Z,3.35
2022-07-25T23:58:50.064Z,3.00
